createdAt,value
2018-04-27T00:00:49.729Z,97.36
2018-04-27T00:02:04.571Z,97.17
2018-04-27T00:03:18.589Z,97.36
2018-04-27T00:04:33.209Z,97.74
2018-04-27T00:05:47.951Z,97.55
2018-04-27T00:11:59.740Z,99.22
2018-04-27T00:13:13.995Z,98.65
2018-04-27T00:14:28.965Z,99.5
2018-04-27T00:15:43.403Z,99.41
2018-04-27T00:16:57.864Z,99.5
2018-04-27T00:18:12.332Z,99.6
2018-04-27T00:19:26.836Z,99.31
2018-04-27T00:20:41.803Z,99.98
2018-04-27T00:21:55.265Z,99.69
2018-04-27T00:23:09.268Z,99.99
2018-04-27T00:24:23.416Z,99.99
2018-04-27T00:25:38.175Z,99.99
2018-04-27T00:26:52.879Z,99.99
2018-04-27T00:28:07.183Z,99.99
2018-04-27T00:29:21.385Z,99.99
2018-04-27T00:30:35.859Z,99.99
2018-04-27T00:31:50.546Z,99.99
2018-04-27T00:33:04.996Z,99.99
2018-04-27T00:34:19.622Z,99.99
2018-04-27T00:35:34.482Z,99.99
2018-04-27T00:36:48.849Z,99.99
2018-04-27T00:38:03.546Z,99.99
2018-04-27T00:39:18.034Z,99.99
2018-04-27T00:40:32.185Z,99.99
2018-04-27T00:41:46.594Z,99.99
2018-04-27T00:43:01.254Z,99.99
2018-04-27T00:44:15.672Z,99.99
2018-04-27T00:45:29.855Z,99.99
2018-04-27T00:46:44.356Z,99.99
2018-04-27T00:47:59.371Z,99.99
2018-04-27T00:49:14.024Z,99.99
2018-04-27T00:50:28.253Z,99.99
2018-04-27T00:51:42.717Z,99.99
2018-04-27T00:52:57.707Z,99.99
2018-04-27T00:54:12.142Z,99.99
2018-04-27T00:55:26.571Z,99.99
2018-04-27T00:56:41.539Z,99.99
2018-04-27T00:57:56.102Z,99.99
2018-04-27T00:59:10.698Z,99.99
2018-04-27T01:00:25.716Z,99.99
2018-04-27T01:01:39.631Z,99.99
2018-04-27T01:02:54.399Z,99.99
2018-04-27T01:04:08.613Z,99.99
2018-04-27T01:05:22.817Z,99.99
2018-04-27T01:06:37.262Z,99.99
2018-04-27T01:07:51.976Z,99.99
2018-04-27T01:09:06.179Z,99.99
2018-04-27T01:10:20.606Z,99.99
2018-04-27T01:11:35.292Z,99.99
2018-04-27T01:12:50.222Z,99.99
2018-04-27T01:14:04.978Z,99.99
2018-04-27T01:15:19.661Z,99.99
2018-04-27T01:16:33.862Z,99.99
2018-04-27T01:17:48.145Z,99.99
2018-04-27T01:19:02.252Z,99.99
2018-04-27T01:20:16.435Z,99.99
2018-04-27T01:21:30.377Z,99.99
2018-04-27T01:22:44.827Z,99.99
2018-04-27T01:23:59.327Z,99.99
2018-04-27T01:25:13.259Z,99.99
2018-04-27T01:26:27.521Z,99.99
2018-04-27T01:27:41.997Z,99.99
2018-04-27T01:28:56.259Z,99.99
2018-04-27T01:30:10.274Z,99.99
2018-04-27T01:31:24.209Z,99.99
2018-04-27T01:32:38.158Z,99.99
2018-04-27T01:33:52.460Z,99.99
2018-04-27T01:35:06.706Z,99.99
2018-04-27T01:36:21.537Z,99.99
2018-04-27T01:37:35.990Z,99.99
2018-04-27T01:38:50.478Z,99.99
2018-04-27T01:40:05.110Z,99.99
2018-04-27T01:41:19.573Z,99.99
2018-04-27T01:42:34.048Z,99.99
2018-04-27T01:43:48.306Z,99.99
2018-04-27T01:45:03.111Z,99.99
2018-04-27T01:46:17.552Z,99.99
2018-04-27T01:47:31.747Z,99.99
2018-04-27T01:48:46.462Z,99.99
2018-04-27T01:50:00.880Z,99.99
2018-04-27T01:51:15.080Z,99.99
2018-04-27T01:52:29.559Z,99.99
2018-04-27T01:53:45.002Z,99.99
2018-04-27T01:54:59.206Z,99.99
2018-04-27T01:56:13.713Z,99.99
2018-04-27T01:57:29.086Z,99.99
2018-04-27T01:58:43.797Z,99.99
2018-04-27T01:59:58.628Z,99.99
2018-04-27T02:01:13.267Z,99.99
2018-04-27T02:02:27.189Z,99.99
2018-04-27T02:03:41.880Z,99.99
2018-04-27T02:04:56.776Z,99.99
2018-04-27T02:06:11.221Z,99.99
2018-04-27T02:07:26.170Z,99.99
2018-04-27T02:08:40.350Z,99.99
2018-04-27T02:09:53.973Z,99.99
2018-04-27T02:11:07.927Z,99.99
2018-04-27T02:12:22.635Z,99.99
2018-04-27T02:13:36.545Z,99.99
2018-04-27T02:14:50.488Z,99.99
2018-04-27T02:16:05.164Z,99.99
2018-04-27T02:17:19.602Z,99.99
2018-04-27T02:18:33.287Z,99.99
2018-04-27T02:19:47.955Z,99.99
2018-04-27T02:21:02.159Z,99.99
2018-04-27T02:22:16.781Z,99.99
2018-04-27T02:23:30.962Z,99.99
2018-04-27T02:24:45.681Z,99.99
2018-04-27T02:25:59.892Z,99.99
2018-04-27T02:27:13.883Z,99.99
2018-04-27T02:28:28.125Z,99.99
2018-04-27T02:29:42.804Z,99.99
2018-04-27T02:30:56.459Z,99.99
2018-04-27T02:32:10.763Z,99.99
2018-04-27T02:33:24.446Z,99.99
2018-04-27T02:34:38.133Z,99.99
2018-04-27T02:35:52.894Z,99.99
2018-04-27T02:37:07.101Z,99.99
2018-04-27T02:38:21.837Z,99.99
2018-04-27T02:39:36.055Z,99.99
2018-04-27T02:40:50.983Z,99.99
2018-04-27T02:42:05.181Z,99.99
2018-04-27T02:43:19.339Z,99.99
2018-04-27T02:44:33.105Z,99.99
2018-04-27T02:45:47.531Z,99.99
2018-04-27T02:47:02.433Z,99.99
2018-04-27T02:48:17.044Z,99.99
2018-04-27T02:49:31.609Z,99.99
2018-04-27T02:50:46.564Z,99.99
2018-04-27T02:52:01.066Z,99.99
2018-04-27T02:53:14.775Z,99.99
2018-04-27T02:54:29.233Z,99.99
2018-04-27T02:55:43.814Z,99.99
2018-04-27T02:56:58.028Z,99.99
2018-04-27T02:58:12.688Z,99.99
2018-04-27T02:59:27.358Z,99.99
2018-04-27T03:00:41.611Z,99.99
2018-04-27T03:01:55.740Z,99.99
2018-04-27T03:03:09.954Z,99.99
2018-04-27T03:04:24.382Z,99.99
2018-04-27T03:05:38.595Z,99.99
2018-04-27T03:06:53.277Z,99.99
2018-04-27T03:08:07.918Z,99.99
2018-04-27T03:09:21.843Z,99.99
2018-04-27T03:10:36.523Z,99.99
2018-04-27T03:11:50.459Z,99.99
2018-04-27T03:13:05.181Z,99.99
2018-04-27T03:14:19.986Z,99.99
2018-04-27T03:15:34.192Z,99.99
2018-04-27T03:16:48.678Z,99.99
2018-04-27T03:18:03.380Z,99.99
2018-04-27T03:19:17.550Z,99.99
2018-04-27T03:20:31.764Z,99.99
2018-04-27T03:21:46.239Z,99.99
2018-04-27T03:23:00.425Z,99.99
2018-04-27T03:24:14.879Z,99.99
2018-04-27T03:25:29.291Z,99.99
2018-04-27T03:26:43.688Z,99.99
2018-04-27T03:27:58.414Z,99.99
2018-04-27T03:29:13.052Z,99.99
2018-04-27T03:30:26.790Z,99.99
2018-04-27T03:31:41.277Z,99.99
2018-04-27T03:32:55.755Z,99.99
2018-04-27T03:34:10.249Z,99.99
2018-04-27T03:35:25.094Z,99.99
2018-04-27T03:36:39.597Z,99.99
2018-04-27T03:37:53.810Z,99.99
2018-04-27T03:39:07.525Z,99.99
2018-04-27T03:40:21.495Z,99.99
2018-04-27T03:41:35.938Z,99.99
2018-04-27T03:42:49.873Z,99.99
2018-04-27T03:44:03.834Z,99.99
2018-04-27T03:45:18.203Z,99.99
2018-04-27T03:46:32.787Z,99.99
2018-04-27T03:47:47.255Z,99.99
2018-04-27T03:49:01.688Z,99.99
2018-04-27T03:50:16.667Z,99.99
2018-04-27T03:51:31.444Z,99.99
2018-04-27T03:52:46.167Z,99.99
2018-04-27T03:54:00.615Z,99.99
2018-04-27T03:55:14.384Z,99.99
2018-04-27T03:56:29.099Z,99.99
2018-04-27T03:57:44.288Z,99.99
2018-04-27T03:58:58.542Z,99.99
2018-04-27T04:00:13.006Z,99.99
2018-04-27T04:01:27.439Z,99.99
2018-04-27T04:02:42.480Z,99.99
2018-04-27T04:03:57.177Z,99.99
2018-04-27T04:05:12.158Z,99.99
2018-04-27T04:06:26.366Z,99.99
2018-04-27T04:07:41.097Z,99.99
2018-04-27T04:08:55.977Z,99.99
2018-04-27T04:10:10.177Z,99.99
2018-04-27T04:11:24.671Z,99.99
2018-04-27T04:12:38.622Z,99.99
2018-04-27T04:13:53.084Z,99.99
2018-04-27T04:15:07.279Z,99.99
2018-04-27T04:16:21.785Z,99.99
2018-04-27T04:17:36.251Z,99.99
2018-04-27T04:18:50.985Z,99.99
2018-04-27T04:20:05.162Z,99.99
2018-04-27T04:21:18.619Z,99.99
2018-04-27T04:22:33.083Z,99.99
2018-04-27T04:23:47.640Z,99.99
2018-04-27T04:25:02.223Z,99.99
2018-04-27T04:26:16.497Z,99.99
2018-04-27T04:27:30.966Z,99.99
2018-04-27T04:28:45.661Z,99.99
2018-04-27T04:29:59.994Z,99.99
2018-04-27T04:31:14.483Z,99.99
2018-04-27T04:32:28.732Z,99.99
2018-04-27T04:33:44.110Z,99.99
2018-04-27T04:34:58.935Z,99.99
2018-04-27T04:36:13.167Z,99.99
2018-04-27T04:37:28.097Z,99.99
2018-04-27T04:38:42.988Z,99.99
2018-04-27T04:39:57.719Z,99.99
2018-04-27T04:41:12.684Z,99.99
2018-04-27T04:42:26.968Z,99.99
2018-04-27T04:43:41.146Z,99.99
2018-04-27T04:44:55.116Z,99.99
2018-04-27T04:46:10.236Z,99.99
2018-04-27T04:47:25.573Z,99.99
2018-04-27T04:48:39.830Z,99.99
2018-04-27T04:49:53.840Z,99.99
2018-04-27T04:51:08.082Z,99.99
2018-04-27T04:52:22.791Z,99.99
2018-04-27T04:53:36.851Z,99.99
2018-04-27T04:54:51.091Z,99.99
2018-04-27T04:56:06.106Z,99.99
2018-04-27T04:57:20.335Z,99.99
2018-04-27T04:58:34.572Z,99.99
2018-04-27T04:59:49.532Z,99.99
2018-04-27T05:01:04.023Z,99.99
2018-04-27T05:02:19.251Z,96.22
2018-04-27T05:03:33.568Z,96.13
2018-04-27T05:04:47.534Z,99.08
2018-04-27T05:06:02.029Z,99.99
2018-04-27T05:07:16.560Z,99.99
2018-04-27T05:08:31.306Z,99.99
2018-04-27T05:09:45.757Z,99.99
2018-04-27T05:11:00.158Z,99.99
2018-04-27T05:12:14.417Z,99.99
2018-04-27T05:13:29.152Z,99.99
2018-04-27T05:14:44.339Z,99.99
2018-04-27T05:16:04.896Z,99.99
2018-04-27T05:17:19.432Z,99.99
2018-04-27T05:18:33.659Z,99.99
2018-04-27T05:19:47.889Z,99.99
2018-04-27T05:21:02.551Z,99.99
2018-04-27T05:22:16.862Z,99.99
2018-04-27T05:23:31.361Z,99.99
2018-04-27T05:24:45.839Z,99.99
2018-04-27T05:26:00.031Z,99.99
2018-04-27T05:27:14.584Z,99.99
2018-04-27T05:28:29.010Z,99.99
2018-04-27T05:29:43.943Z,99.99
2018-04-27T05:30:59.168Z,99.99
2018-04-27T05:32:13.144Z,99.99
2018-04-27T05:33:26.933Z,99.99
2018-04-27T05:34:41.717Z,99.99
2018-04-27T05:35:55.972Z,99.99
2018-04-27T05:37:10.188Z,99.99
2018-04-27T05:38:24.894Z,99.99
2018-04-27T05:39:38.845Z,98.13
2018-04-27T05:40:52.591Z,96.75
2018-04-27T05:42:07.388Z,95.79
2018-04-27T05:43:21.669Z,94.27
2018-04-27T05:44:36.403Z,93.17
2018-04-27T05:45:50.843Z,94.12
2018-04-27T05:47:05.551Z,92.22
2018-04-27T05:48:20.206Z,91.93
2018-04-27T05:49:34.524Z,92.22
2018-04-27T05:50:49.741Z,90.55
2018-04-27T05:52:03.700Z,89.31
2018-04-27T05:53:18.231Z,88.64
2018-04-27T05:54:32.522Z,87.87
2018-04-27T05:55:47.081Z,87.02
2018-04-27T05:57:01.571Z,87.78
2018-04-27T05:58:15.840Z,86.82
2018-04-27T05:59:30.292Z,86.2
2018-04-27T06:00:44.591Z,85.25
2018-04-27T06:01:59.292Z,84.86
2018-04-27T06:03:13.295Z,85.15
2018-04-27T06:04:27.505Z,85.05
2018-04-27T06:05:42.593Z,84.86
2018-04-27T06:06:56.578Z,84.58
2018-04-27T06:08:11.796Z,84.48
2018-04-27T06:09:26.663Z,84.48
2018-04-27T06:10:40.654Z,84.53
2018-04-27T06:11:55.351Z,84.48
2018-04-27T06:13:09.825Z,83.81
2018-04-27T06:14:24.477Z,84.39
2018-04-27T06:15:38.723Z,84.29
2018-04-27T06:16:53.440Z,84.77
2018-04-27T06:18:07.919Z,85.05
2018-04-27T06:19:23.084Z,84.96
2018-04-27T06:20:37.874Z,84.92
2018-04-27T06:21:51.840Z,84.2
2018-04-27T06:23:06.053Z,84.44
2018-04-27T06:24:20.607Z,84
2018-04-27T06:25:35.590Z,83.72
2018-04-27T06:26:50.740Z,82.76
2018-04-27T06:28:05.232Z,82
2018-04-27T06:29:19.899Z,82.76
2018-04-27T06:30:34.332Z,83.34
2018-04-27T06:31:48.632Z,82.76
2018-04-27T06:33:02.757Z,82.29
2018-04-27T06:34:16.967Z,82.29
2018-04-27T06:35:31.471Z,81.24
2018-04-27T06:36:45.946Z,81.9
2018-04-27T06:38:00.423Z,81.43
2018-04-27T06:39:14.654Z,80.57
2018-04-27T06:40:29.647Z,80.09
2018-04-27T06:41:44.374Z,80.28
2018-04-27T06:42:58.641Z,79.71
2018-04-27T06:44:13.100Z,79.61
2018-04-27T06:45:28.146Z,80.19
2018-04-27T06:46:42.322Z,79.65
2018-04-27T06:47:57.336Z,79.9
2018-04-27T06:49:11.981Z,80.47
2018-04-27T06:50:26.834Z,80.19
2018-04-27T06:51:41.267Z,80.22
2018-04-27T06:52:56.259Z,80.22
2018-04-27T06:54:11.024Z,79.94
2018-04-27T06:55:25.842Z,78.99
2018-04-27T06:56:40.319Z,78.7
2018-04-27T06:57:54.827Z,78.51
2018-04-27T06:59:09.369Z,78.74
2018-04-27T07:00:23.657Z,78.93
2018-04-27T07:01:37.907Z,78.26
2018-04-27T07:02:52.394Z,78.26
2018-04-27T07:04:06.635Z,78.36
2018-04-27T07:05:21.456Z,77.11
2018-04-27T07:06:35.663Z,76.73
2018-04-27T07:07:50.013Z,75.68
2018-04-27T07:09:03.983Z,75.96
2018-04-27T07:10:24.721Z,76.54
2018-04-27T07:11:39.610Z,76.73
2018-04-27T07:12:54.478Z,77.21
2018-04-27T07:14:08.750Z,76.98
2018-04-27T07:15:23.190Z,76.5
2018-04-27T07:16:38.497Z,76.31
2018-04-27T07:17:53.402Z,76.6
2018-04-27T07:19:07.906Z,76.4
2018-04-27T07:20:22.414Z,77.21
2018-04-27T07:21:36.877Z,76.92
2018-04-27T07:22:51.369Z,75.96
2018-04-27T07:24:05.505Z,75.1
2018-04-27T07:25:20.001Z,74.73
2018-04-27T07:26:34.492Z,75.96
2018-04-27T07:27:49.296Z,75.39
2018-04-27T07:29:03.797Z,75.96
2018-04-27T07:30:18.059Z,75.87
2018-04-27T07:31:32.788Z,75.87
2018-04-27T07:32:46.981Z,75.96
2018-04-27T07:34:01.226Z,75.1
2018-04-27T07:35:15.584Z,74.63
2018-04-27T07:36:30.765Z,73.71
2018-04-27T07:37:45.590Z,73.67
2018-04-27T07:38:59.610Z,73.43
2018-04-27T07:40:14.374Z,72.94
2018-04-27T07:41:29.162Z,73.58
2018-04-27T07:42:44.014Z,74.05
2018-04-27T07:43:58.493Z,74.09
2018-04-27T07:45:13.087Z,72.75
2018-04-27T07:46:28.114Z,72.28
2018-04-27T07:47:43.104Z,72.08
2018-04-27T07:48:57.609Z,71.61
2018-04-27T07:50:11.606Z,70.27
2018-04-27T07:51:25.773Z,69.89
2018-04-27T07:52:40.714Z,70.84
2018-04-27T07:53:55.450Z,71.22
2018-04-27T07:55:09.752Z,71.03
2018-04-27T07:56:24.304Z,71.32
2018-04-27T07:57:38.769Z,71.36
2018-04-27T07:58:52.730Z,70.87
2018-04-27T08:00:06.728Z,70.68
2018-04-27T08:01:20.988Z,71.55
2018-04-27T08:02:35.860Z,70.4
2018-04-27T08:03:50.315Z,70.07
2018-04-27T08:05:04.795Z,71.32
2018-04-27T08:06:19.260Z,70.84
2018-04-27T08:07:33.709Z,71.64
2018-04-27T08:08:48.328Z,71.89
2018-04-27T08:10:03.573Z,72.18
2018-04-27T08:11:18.152Z,72.94
2018-04-27T08:12:32.282Z,72.66
2018-04-27T08:13:46.692Z,73.04
2018-04-27T08:15:01.372Z,72.56
2018-04-27T08:16:15.321Z,72.47
2018-04-27T08:17:29.484Z,72.18
2018-04-27T08:18:43.997Z,71.89
2018-04-27T08:19:58.188Z,71.42
2018-04-27T08:21:12.935Z,71.99
2018-04-27T08:22:28.150Z,71.99
2018-04-27T08:23:42.656Z,72.22
2018-04-27T08:24:56.843Z,72.12
2018-04-27T08:26:11.578Z,72.5
2018-04-27T08:27:25.292Z,72.5
2018-04-27T08:28:39.543Z,71.55
2018-04-27T08:29:54.321Z,71.48
2018-04-27T08:31:08.367Z,71.2
2018-04-27T08:32:22.592Z,70.53
2018-04-27T08:33:37.117Z,70.91
2018-04-27T08:34:51.351Z,71.01
2018-04-27T08:36:06.187Z,70.91
2018-04-27T08:37:20.533Z,70.24
2018-04-27T08:38:35.032Z,70.34
2018-04-27T08:39:49.513Z,70.05
2018-04-27T08:41:04.078Z,69.76
2018-04-27T08:42:18.832Z,68.04
2018-04-27T08:43:33.166Z,68.71
2018-04-27T08:44:47.703Z,69.29
2018-04-27T08:46:01.915Z,69.86
2018-04-27T08:47:16.395Z,70.15
2018-04-27T08:48:31.125Z,69.76
2018-04-27T08:49:45.963Z,69.57
2018-04-27T08:51:00.304Z,69.29
2018-04-27T08:52:14.519Z,68.8
2018-04-27T08:53:29.575Z,69.19
2018-04-27T08:54:43.549Z,68.94
2018-04-27T08:55:57.853Z,69.03
2018-04-27T08:57:11.855Z,69.32
2018-04-27T08:58:26.350Z,68.84
2018-04-27T08:59:40.618Z,68.46
2018-04-27T09:00:55.134Z,68.07
2018-04-27T09:02:09.118Z,67.11
2018-04-27T09:03:23.681Z,65.78
2018-04-27T09:04:38.012Z,64.72
2018-04-27T09:05:52.213Z,64.63
2018-04-27T09:07:06.974Z,64.82
2018-04-27T09:08:21.925Z,64.63
2018-04-27T09:09:36.365Z,64.25
2018-04-27T09:10:50.590Z,63.29
2018-04-27T09:12:04.997Z,63.48
2018-04-27T09:13:19.458Z,62.43
2018-04-27T09:14:34.241Z,62.71
2018-04-27T09:15:49.057Z,63.48
2018-04-27T09:17:03.603Z,63.39
2018-04-27T09:18:17.598Z,63.39
2018-04-27T09:19:32.230Z,63.29
2018-04-27T09:20:46.778Z,62.23
2018-04-27T09:22:01.516Z,62.14
2018-04-27T09:23:15.759Z,62.62
2018-04-27T09:24:29.992Z,62.9
2018-04-27T09:25:44.235Z,61.08
2018-04-27T09:26:58.528Z,60.13
2018-04-27T09:28:13.434Z,60.7
2018-04-27T09:29:28.669Z,61.08
2018-04-27T09:30:43.286Z,61.18
2018-04-27T09:31:58.071Z,61.11
2018-04-27T09:33:12.554Z,61.31
2018-04-27T09:34:27.353Z,61.02
2018-04-27T09:35:42.470Z,61.98
2018-04-27T09:36:56.979Z,60.83
2018-04-27T09:38:11.518Z,61.11
2018-04-27T09:39:25.565Z,61.02
2018-04-27T09:40:39.585Z,61.11
2018-04-27T09:41:54.074Z,59.11
2018-04-27T09:43:08.593Z,59.68
2018-04-27T09:44:22.560Z,59.48
2018-04-27T09:45:37.593Z,58.56
2018-04-27T09:46:52.108Z,58.75
2018-04-27T09:48:06.548Z,57.41
2018-04-27T09:49:21.542Z,56.26
2018-04-27T09:50:36.114Z,55.87
2018-04-27T09:51:50.996Z,56.26
2018-04-27T09:53:04.867Z,55.4
2018-04-27T09:54:19.869Z,55.21
2018-04-27T09:55:33.867Z,54.72
2018-04-27T09:56:48.825Z,53.77
2018-04-27T09:58:03.342Z,53.28
2018-04-27T09:59:17.426Z,54.63
2018-04-27T10:00:31.129Z,55.01
2018-04-27T10:01:45.663Z,54.63
2018-04-27T10:03:00.420Z,54.53
2018-04-27T10:04:15.158Z,54.63
2018-04-27T10:05:29.888Z,54.05
2018-04-27T10:06:44.749Z,53.58
2018-04-27T10:07:59.531Z,53.58
2018-04-27T10:09:14.122Z,53
2018-04-27T10:10:28.572Z,52.91
2018-04-27T10:11:43.257Z,52.62
2018-04-27T10:12:58.350Z,53.67
2018-04-27T10:14:12.869Z,52.55
2018-04-27T10:15:26.878Z,50.89
2018-04-27T10:16:41.385Z,51.85
2018-04-27T10:18:02.184Z,51.85
2018-04-27T10:19:16.977Z,51.85
2018-04-27T10:20:32.132Z,51.78
2018-04-27T10:21:47.231Z,51.78
2018-04-27T10:23:01.670Z,52.36
2018-04-27T10:24:15.660Z,51.4
2018-04-27T10:25:29.904Z,50.63
2018-04-27T10:26:44.115Z,50.82
2018-04-27T10:27:58.976Z,50.92
2018-04-27T10:29:13.470Z,51.1
2018-04-27T10:30:27.500Z,49.29
2018-04-27T10:31:41.482Z,49.93
2018-04-27T10:32:55.510Z,49.55
2018-04-27T10:34:10.144Z,50.6
2018-04-27T10:35:24.365Z,51.87
2018-04-27T10:36:39.212Z,51.78
2018-04-27T10:37:53.823Z,52.64
2018-04-27T10:39:08.579Z,52.48
2018-04-27T10:40:22.521Z,51.9
2018-04-27T10:41:37.028Z,51.78
2018-04-27T10:42:51.116Z,52.45
2018-04-27T10:44:09.139Z,51.97
2018-04-27T10:45:23.112Z,51.78
2018-04-27T10:46:37.628Z,50.65
2018-04-27T10:47:52.000Z,49.69
2018-04-27T10:49:06.493Z,50.53
2018-04-27T10:50:20.829Z,51.49
2018-04-27T10:51:35.447Z,51.61
2018-04-27T10:52:49.999Z,51.1
2018-04-27T10:54:04.488Z,50.94
2018-04-27T10:55:18.995Z,51.61
2018-04-27T10:56:33.269Z,51.71
2018-04-27T10:57:47.341Z,51.42
2018-04-27T10:59:02.190Z,51.71
2018-04-27T11:00:16.933Z,51.81
2018-04-27T11:01:31.161Z,51.9
2018-04-27T11:02:45.149Z,52.67
2018-04-27T11:03:59.440Z,51.42
2018-04-27T11:05:13.924Z,50.94
2018-04-27T11:06:27.647Z,51.71
2018-04-27T11:07:42.188Z,52.19
2018-04-27T11:08:56.868Z,52.67
2018-04-27T11:10:11.092Z,53.15
2018-04-27T11:11:25.973Z,51.9
2018-04-27T11:12:40.496Z,51.61
2018-04-27T11:13:55.253Z,51.51
2018-04-27T11:15:09.249Z,52.76
2018-04-27T11:16:24.007Z,53.53
2018-04-27T11:17:38.707Z,53.82
2018-04-27T11:18:53.380Z,53.82
2018-04-27T11:20:07.684Z,53.34
2018-04-27T11:21:23.020Z,52.95
2018-04-27T11:22:37.526Z,52.67
2018-04-27T11:23:52.483Z,51.9
2018-04-27T11:25:06.478Z,52.38
2018-04-27T11:26:21.001Z,52.28
2018-04-27T11:27:35.765Z,52.86
2018-04-27T11:28:51.003Z,53.6
2018-04-27T11:30:04.779Z,54.21
2018-04-27T11:31:19.266Z,54.01
2018-04-27T11:32:33.753Z,53.72
2018-04-27T11:33:48.483Z,54.11
2018-04-27T11:35:03.443Z,55.07
2018-04-27T11:36:18.295Z,55.93
2018-04-27T11:37:32.837Z,56.12
2018-04-27T11:38:47.099Z,55.29
2018-04-27T11:40:00.895Z,54.42
2018-04-27T11:41:14.963Z,53.66
2018-04-27T11:42:29.680Z,53.68
2018-04-27T11:43:44.708Z,53.11
2018-04-27T11:44:59.444Z,53.3
2018-04-27T11:46:14.389Z,53.11
2018-04-27T11:47:28.595Z,53.87
2018-04-27T11:48:42.836Z,53.97
2018-04-27T11:49:57.069Z,54.55
2018-04-27T11:51:11.056Z,54.45
2018-04-27T11:52:24.797Z,54.09
2018-04-27T11:53:40.001Z,52.84
2018-04-27T11:54:54.320Z,53.01
2018-04-27T11:56:08.334Z,53.2
2018-04-27T11:57:22.333Z,53.11
2018-04-27T11:58:36.676Z,52.91
2018-04-27T11:59:51.455Z,52.53
2018-04-27T12:01:05.938Z,52.91
2018-04-27T12:02:20.407Z,53.01
2018-04-27T12:03:34.937Z,52.34
2018-04-27T12:04:49.199Z,52.43
2018-04-27T12:06:03.963Z,52.17
2018-04-27T12:07:18.711Z,52.75
2018-04-27T12:08:33.202Z,52.46
2018-04-27T12:09:47.672Z,52.75
2018-04-27T12:11:02.025Z,52.46
2018-04-27T12:12:16.814Z,51.88
2018-04-27T12:13:30.866Z,52.75
2018-04-27T12:14:51.401Z,53.03
2018-04-27T12:16:05.872Z,52.55
2018-04-27T12:17:20.349Z,51.5
2018-04-27T12:18:34.868Z,51.21
2018-04-27T12:19:49.650Z,50.73
2018-04-27T12:21:04.256Z,51.43
2018-04-27T12:22:18.955Z,51.72
2018-04-27T12:23:39.583Z,50.95
2018-04-27T12:24:54.904Z,51.04
2018-04-27T12:26:08.660Z,50.18
2018-04-27T12:27:23.402Z,49.99
2018-04-27T12:28:37.385Z,49.79
2018-04-27T12:29:52.169Z,49.79
2018-04-27T12:31:06.960Z,50.01
2018-04-27T12:32:21.760Z,48.18
2018-04-27T12:33:36.255Z,48.18
2018-04-27T12:34:50.516Z,48.95
2018-04-27T12:36:05.311Z,48.64
2018-04-27T12:37:19.658Z,48.18
2018-04-27T12:38:35.129Z,48.18
2018-04-27T12:39:49.771Z,48.18
2018-04-27T12:41:04.355Z,47.63
2018-04-27T12:42:19.148Z,47.82
2018-04-27T12:43:33.401Z,47.63
2018-04-27T12:44:47.887Z,48.59
2018-04-27T12:46:02.835Z,49.36
2018-04-27T12:47:17.084Z,49.84
2018-04-27T12:48:32.091Z,50.04
2018-04-27T12:49:46.601Z,49.46
2018-04-27T12:51:01.207Z,47.99
2018-04-27T12:52:16.204Z,47.7
2018-04-27T12:53:30.749Z,48.28
2018-04-27T12:54:45.868Z,47.89
2018-04-27T12:55:59.922Z,47.7
2018-04-27T12:57:14.420Z,47.99
2018-04-27T12:58:28.951Z,48.11
2018-04-27T12:59:43.964Z,47.82
2018-04-27T13:00:58.390Z,47.94
2018-04-27T13:02:13.152Z,47.65
2018-04-27T13:03:27.955Z,46.98
2018-04-27T13:04:41.991Z,46.67
2018-04-27T13:05:56.652Z,46.31
2018-04-27T13:07:12.640Z,46.57
2018-04-27T13:08:28.374Z,47.17
2018-04-27T13:09:42.921Z,47.63
2018-04-27T13:10:57.987Z,47.92
2018-04-27T13:12:12.627Z,48.02
2018-04-27T13:13:26.988Z,47.92
2018-04-27T13:14:42.804Z,47.53
2018-04-27T13:15:57.780Z,48.02
2018-04-27T13:17:12.552Z,48.59
2018-04-27T13:18:26.580Z,48.21
2018-04-27T13:19:40.938Z,48.21
2018-04-27T13:20:56.462Z,48.02
2018-04-27T13:22:10.876Z,48.57
2018-04-27T13:23:25.517Z,48.66
2018-04-27T13:24:40.751Z,48.18
2018-04-27T13:25:56.153Z,49.63
2018-04-27T13:27:34.149Z,49.24
2018-04-27T13:28:48.768Z,49.53
2018-04-27T13:30:03.617Z,50.04
2018-04-27T13:31:25.365Z,49.84
2018-04-27T13:32:40.624Z,48.3
2018-04-27T13:33:55.732Z,48.02
2018-04-27T13:35:10.860Z,48.28
2018-04-27T13:36:25.243Z,48.47
2018-04-27T13:37:39.804Z,48.18
2018-04-27T13:38:54.555Z,48.85
2018-04-27T13:40:09.111Z,49.63
2018-04-27T13:41:24.426Z,48.85
2018-04-27T13:42:38.146Z,48.47
2018-04-27T13:43:52.759Z,48.57
2018-04-27T13:45:07.574Z,48.66
2018-04-27T13:46:22.588Z,49.33
2018-04-27T13:47:37.524Z,48.85
2018-04-27T13:48:52.641Z,48.95
2018-04-27T13:50:07.321Z,48.66
2018-04-27T13:51:21.682Z,48.57
2018-04-27T13:52:37.066Z,48.66
2018-04-27T13:53:51.308Z,48.76
2018-04-27T13:55:06.084Z,48.79
2018-04-27T13:56:20.725Z,48.4
2018-04-27T13:57:35.696Z,48.95
2018-04-27T13:58:49.751Z,49.46
2018-04-27T14:00:04.506Z,49.17
2018-04-27T14:01:18.925Z,48.88
2018-04-27T14:02:33.285Z,48.97
2018-04-27T14:03:48.208Z,49.55
2018-04-27T14:05:03.149Z,49.19
2018-04-27T14:06:18.187Z,48.71
2018-04-27T14:07:32.925Z,48.02
2018-04-27T14:08:47.489Z,47.92
2018-04-27T14:10:01.763Z,48.11
2018-04-27T14:11:16.344Z,48.3
2018-04-27T14:12:32.453Z,48.69
2018-04-27T14:13:46.927Z,48.97
2018-04-27T14:15:01.533Z,48.79
2018-04-27T14:16:16.140Z,48.79
2018-04-27T14:17:30.476Z,48.3
2018-04-27T14:18:44.773Z,48.02
2018-04-27T14:20:01.035Z,48.03
2018-04-27T14:21:15.968Z,48.13
2018-04-27T14:22:30.778Z,48.03
2018-04-27T14:23:45.263Z,48.03
2018-04-27T14:24:59.808Z,46.88
2018-04-27T14:26:14.683Z,47.08
2018-04-27T14:27:29.263Z,46.88
2018-04-27T14:28:43.776Z,46.69
2018-04-27T14:29:58.623Z,47.05
2018-04-27T14:31:13.005Z,47.17
2018-04-27T14:32:27.901Z,46.78
2018-04-27T14:33:42.117Z,47.08
2018-04-27T14:34:56.974Z,47.08
2018-04-27T14:36:11.746Z,46.88
2018-04-27T14:37:26.298Z,46.78
2018-04-27T14:38:41.378Z,47.08
2018-04-27T14:39:55.890Z,47.75
2018-04-27T14:41:11.052Z,47.75
2018-04-27T14:42:25.966Z,48.23
2018-04-27T14:43:40.628Z,47.36
2018-04-27T14:44:55.218Z,47.27
2018-04-27T14:46:09.833Z,47.75
2018-04-27T14:47:24.665Z,47.08
2018-04-27T14:48:39.278Z,47.08
2018-04-27T14:49:53.870Z,46.62
2018-04-27T14:51:08.683Z,46.5
2018-04-27T14:52:23.412Z,46.78
2018-04-27T14:53:36.851Z,46.78
2018-04-27T14:54:51.369Z,47.1
2018-04-27T14:56:06.103Z,46.91
2018-04-27T14:57:20.628Z,46.33
2018-04-27T14:58:36.046Z,46.11
2018-04-27T14:59:50.993Z,46.4
2018-04-27T15:01:05.368Z,46.69
2018-04-27T15:02:19.642Z,46.88
2018-04-27T15:03:40.793Z,46.69
2018-04-27T15:04:55.565Z,46.69
2018-04-27T15:06:10.166Z,46.33
2018-04-27T15:07:25.465Z,46.23
2018-04-27T15:08:41.037Z,45.92
2018-04-27T15:09:55.310Z,46.11
2018-04-27T15:11:10.398Z,46.21
2018-04-27T15:12:24.213Z,46.59
2018-04-27T15:13:38.272Z,46.78
2018-04-27T15:14:52.801Z,47.36
2018-04-27T15:16:07.995Z,46.91
2018-04-27T15:17:22.638Z,46.81
2018-04-27T15:18:37.393Z,46.33
2018-04-27T15:19:51.694Z,46.23
2018-04-27T15:21:05.547Z,46.62
2018-04-27T15:22:21.278Z,46.62
2018-04-27T15:23:36.960Z,46.81
2018-04-27T15:24:53.618Z,46.91
2018-04-27T15:26:07.649Z,46.62
2018-04-27T15:27:22.382Z,46.73
2018-04-27T15:28:36.481Z,46.55
2018-04-27T15:29:51.495Z,46.35
2018-04-27T15:31:05.983Z,45.68
2018-04-27T15:32:20.751Z,45.97
2018-04-27T15:33:35.139Z,45.87
2018-04-27T15:34:49.537Z,45.68
2018-04-27T15:36:04.163Z,46.15
2018-04-27T15:37:18.205Z,46.15
2018-04-27T15:38:32.788Z,46.15
2018-04-27T15:39:47.790Z,46.25
2018-04-27T15:41:02.632Z,46.73
2018-04-27T15:42:16.896Z,46.45
2018-04-27T15:43:31.919Z,46.06
2018-04-27T15:44:46.565Z,45.97
2018-04-27T15:46:01.108Z,45.65
2018-04-27T15:47:16.201Z,45.56
2018-04-27T15:48:31.366Z,45.75
2018-04-27T15:49:45.884Z,45.36
2018-04-27T15:51:00.684Z,45.17
2018-04-27T15:52:15.106Z,44.89
2018-04-27T15:53:29.897Z,44.79
2018-04-27T15:54:45.060Z,44.71
2018-04-27T15:56:02.259Z,45
2018-04-27T15:57:17.209Z,44.71
2018-04-27T15:58:32.600Z,44.81
2018-04-27T15:59:46.972Z,44.52
2018-04-27T16:01:01.653Z,44.81
2018-04-27T16:05:10.859Z,45.97
2018-04-27T16:06:25.042Z,46.06
2018-04-27T16:07:40.061Z,46.25
2018-04-27T16:08:54.305Z,46.25
2018-04-27T16:10:08.968Z,46.25
2018-04-27T16:11:23.856Z,46.83